aviador You're here:

OIBA Decoded Metar

ABUMUSA I. in IRAN
Report Time2018-07-20 06:00:00
UTC Time2018-07-20 06:32:31
Flight Rules mvfr MVFR
Wind210° at 10 kt
W.Decomp.*RWY 26: 6.3 kt HW 7.8 kt LCW
W.Rank210° ranks 5
Current wind is above 210° avg. (8.1)
Visibility7000 m
Phenomena:N/A
Clouds:N/A
Expected CloudBase > 2,400 ft AGL from Temp-Dew spread
CeilingNone
Temp34°C (ISA +19)
Dew Point28°C (71% RH)
Heat Index47.3°C
QNH0996 hPa
Density Alt3,255 ft
Elevation22 ft
Report Wrong Elevation
Raw Report
METAR OIBA 200600Z 21010KT 7000 NSC 34/28 Q0996=

Extra information for OIBA:More info

Metar Taf Metar & Taf Last 4 Metars F.Rules Stats Wind Profile Meteogram Temp Stats Airport Information Weather charts Add Link Nearby VenuesMetar ALERT Operation Metar Decoded Social comments